Time;durP1;ratioP1;P1;durP2;ratioP2;P2;SDS_P1;SDS_P2;PMS_P1;PMS_P2;Temp;Humidity;BMP_temperature;BMP_pressure;BME280_temperature;BME280_humidity;BME280_pressure;Samples;Min_cycle;Max_cycle;Signal;HPM_P1;HPM_P2
2022/02/20 00:01:10;;;;;;;0.50;0.50;;;;;;;6.04;57.70;96238.38;5038480;28;20237;-70
2022/02/20 00:03:37;;;;;;;0.57;0.57;;;;;;;5.93;57.86;96232.53;5038395;28;20201;-69
2022/02/20 00:06:04;;;;;;;0.40;0.40;;;;;;;5.86;58.18;96228.91;5038970;28;20616;-70
2022/02/20 00:08:32;;;;;;;0.20;0.20;;;;;;;6.02;58.17;96234.25;5038531;28;20201;-69
2022/02/20 00:10:58;;;;;;;0.20;0.20;;;;;;;5.87;57.85;96240.97;5038585;28;20470;-70
2022/02/20 00:13:25;;;;;;;5.30;0.97;;;;;;;5.93;58.03;96233.38;5038358;28;20202;-70
2022/02/20 00:15:51;;;;;;;19.87;0.63;;;;;;;6.04;57.41;96248.84;5038404;28;20624;-70
2022/02/20 00:18:18;;;;;;;0.37;0.37;;;;;;;5.94;57.78;96228.97;5038426;28;20213;-70
2022/02/20 00:20:45;;;;;;;10.70;0.60;;;;;;;5.85;57.93;96235.91;5038948;28;20225;-70
2022/02/20 00:23:15;;;;;;;5.17;0.90;;;;;;;5.95;57.41;96236.66;5037788;28;20673;-70
2022/02/20 00:25:44;;;;;;;0.53;0.53;;;;;;;6.08;57.84;96232.72;5038196;28;20197;-70
2022/02/20 00:28:11;;;;;;;0.20;0.20;;;;;;;6.06;57.98;96255.56;5038547;28;20657;-70
2022/02/20 00:30:37;;;;;;;0.63;0.63;;;;;;;5.91;58.17;96243.16;5038717;28;20221;-70
2022/02/20 00:33:04;;;;;;;0.40;0.40;;;;;;;5.93;58.20;96237.78;5037446;28;20209;-70
2022/02/20 00:35:33;;;;;;;0.20;0.20;;;;;;;6.01;57.88;96237.84;5038699;28;20204;-69
2022/02/20 00:38:00;;;;;;;7.17;0.70;;;;;;;6.10;57.46;96238.59;5038399;28;20212;-70
2022/02/20 00:40:27;;;;;;;0.30;0.30;;;;;;;5.95;57.43;96234.03;5038521;28;20221;-70
2022/02/20 00:42:55;;;;;;;0.30;0.30;;;;;;;6.10;57.64;96227.31;5037587;28;20307;-70
2022/02/20 00:45:21;;;;;;;5.63;0.37;;;;;;;6.12;56.75;96239.28;5038275;28;20205;-70
2022/02/20 00:47:48;;;;;;;0.40;0.40;;;;;;;6.04;56.93;96230.53;5038375;28;20209;-69
2022/02/20 00:50:14;;;;;;;0.37;0.30;;;;;;;5.97;57.08;96231.28;5038079;28;20519;-70
2022/02/20 00:52:41;;;;;;;0.40;0.40;;;;;;;6.00;57.28;96238.84;5037641;28;20212;-70
2022/02/20 00:55:09;;;;;;;0.20;0.20;;;;;;;6.12;56.77;96231.44;5038215;28;20223;-70
2022/02/20 00:57:35;;;;;;;0.40;0.40;;;;;;;6.20;56.30;96235.91;5038028;28;20201;-70
2022/02/20 01:00:07;;;;;;;0.20;0.20;;;;;;;6.28;56.59;96222.91;5038569;28;20233;-70
2022/02/20 01:02:33;;;;;;;3.00;1.03;;;;;;;6.04;56.95;96233.97;5037394;28;20477;-70
2022/02/20 01:05:00;;;;;;;0.30;0.30;;;;;;;6.03;56.94;96235.91;5037657;28;20674;-70
2022/02/20 01:07:26;;;;;;;2.10;0.70;;;;;;;6.17;56.81;96233.59;5037338;28;20197;-70
2022/02/20 01:09:52;;;;;;;1.17;0.60;;;;;;;6.17;56.83;96236.19;5037703;28;20554;-70
2022/02/20 01:12:19;;;;;;;0.20;0.20;;;;;;;6.04;57.63;96239.19;5036945;28;20212;-70
2022/02/20 01:14:46;;;;;;;0.30;0.30;;;;;;;6.01;57.53;96243.06;5037564;28;20201;-70
2022/02/20 01:17:15;;;;;;;0.23;0.23;;;;;;;6.16;57.45;96248.47;5037587;28;20377;-69
2022/02/20 01:19:42;;;;;;;0.60;0.60;;;;;;;6.29;57.22;96256.75;5037059;28;20208;-70
2022/02/20 01:22:09;;;;;;;0.30;0.30;;;;;;;6.26;57.08;96251.00;5037486;28;20517;-69
2022/02/20 01:24:35;;;;;;;0.80;0.80;;;;;;;6.14;57.44;96268.72;5037218;28;20544;-69
2022/02/20 01:27:02;;;;;;;0.53;0.47;;;;;;;6.23;57.76;96259.97;5037142;28;20216;-70
2022/02/20 01:29:28;;;;;;;2.47;1.17;;;;;;;6.04;58.05;96270.56;5037712;28;20208;-70
2022/02/20 01:31:55;;;;;;;9.23;1.27;;;;;;;6.19;57.74;96266.47;5036765;28;20251;-70
2022/02/20 01:34:23;;;;;;;0.30;0.30;;;;;;;6.29;57.89;96280.31;5036336;28;20201;-70
2022/02/20 01:36:50;;;;;;;0.63;0.40;;;;;;;6.16;57.84;96271.19;5037231;28;20227;-70
2022/02/20 01:39:16;;;;;;;4.90;0.93;;;;;;;6.11;58.12;96282.09;5037309;28;20205;-70
2022/02/20 01:41:43;;;;;;;0.20;0.20;;;;;;;6.30;57.46;96271.50;5037169;28;20571;-70
2022/02/20 01:44:09;;;;;;;2.40;0.60;;;;;;;6.17;57.72;96265.81;5035909;28;20205;-70
2022/02/20 01:46:36;;;;;;;0.60;0.40;;;;;;;6.17;57.64;96262.38;5037229;28;20205;-69
2022/02/20 01:49:03;;;;;;;0.30;0.30;;;;;;;6.29;57.35;96262.00;5037317;28;20264;-70
2022/02/20 01:51:30;;;;;;;0.67;0.40;;;;;;;6.46;58.06;96248.06;5036227;28;20505;-70
2022/02/20 01:53:57;;;;;;;0.30;0.30;;;;;;;6.18;58.16;96246.50;5036106;28;20690;-70
2022/02/20 01:56:23;;;;;;;0.20;0.20;;;;;;;6.32;57.48;96256.44;5036966;28;20208;-70
2022/02/20 01:58:51;;;;;;;2.47;2.00;;;;;;;6.43;57.52;96248.38;5036733;28;20205;-70
2022/02/20 02:01:18;;;;;;;0.30;0.30;;;;;;;6.27;57.64;96231.72;5036664;28;20434;-70
2022/02/20 02:03:44;;;;;;;0.80;0.53;;;;;;;6.33;57.35;96242.41;5036413;28;20201;-70
2022/02/20 02:06:10;;;;;;;1.63;0.43;;;;;;;6.36;57.74;96241.28;5036497;28;20209;-70
2022/02/20 02:08:39;;;;;;;0.30;0.30;;;;;;;6.47;57.99;96260.19;5036415;28;20674;-69
2022/02/20 02:11:06;;;;;;;1.43;1.17;;;;;;;6.26;58.49;96246.59;5037109;28;20527;-70
2022/02/20 02:13:33;;;;;;;0.63;0.53;;;;;;;6.21;58.56;96246.22;5035806;28;20203;-70
2022/02/20 02:15:59;;;;;;;0.30;0.30;;;;;;;6.45;58.36;96237.75;5036124;28;20209;-70
2022/02/20 02:18:26;;;;;;;1.30;0.47;;;;;;;6.41;58.54;96241.66;5036696;28;20700;-69
2022/02/20 02:20:52;;;;;;;0.30;0.30;;;;;;;6.46;58.21;96250.69;5036355;28;20224;-70
2022/02/20 02:23:20;;;;;;;0.40;0.40;;;;;;;6.45;59.19;96251.66;5035688;28;20208;-71
2022/02/20 02:25:49;;;;;;;0.70;0.30;;;;;;;6.49;59.40;96247.78;5036257;28;20205;-70
2022/02/20 02:28:16;;;;;;;0.20;0.20;;;;;;;6.41;59.31;96250.31;5036679;28;20296;-70
2022/02/20 02:30:42;;;;;;;3.20;0.80;;;;;;;6.39;59.23;96239.19;5036621;28;20225;-70
2022/02/20 02:33:09;;;;;;;0.20;0.20;;;;;;;6.45;59.52;96243.78;5036154;28;20209;-70
2022/02/20 02:35:35;;;;;;;0.37;0.30;;;;;;;6.46;59.69;96255.91;5036657;28;20201;-70
2022/02/20 02:38:04;;;;;;;2.43;0.40;;;;;;;6.33;60.33;96260.72;5036463;28;20205;-69
2022/02/20 02:40:32;;;;;;;0.33;0.33;;;;;;;6.59;60.15;96266.00;5037020;28;20249;-69
2022/02/20 02:42:59;;;;;;;0.20;0.20;;;;;;;6.41;61.07;96252.13;5036154;28;20992;-69
2022/02/20 02:45:27;;;;;;;0.47;0.47;;;;;;;6.45;60.89;96272.59;5036526;28;20220;-70
2022/02/20 02:47:53;;;;;;;0.43;0.40;;;;;;;6.49;61.15;96249.56;5036664;28;20208;-71
2022/02/20 02:50:20;;;;;;;0.30;0.30;;;;;;;6.49;61.09;96255.63;5036353;28;20232;-70
2022/02/20 02:52:47;;;;;;;0.30;0.30;;;;;;;6.54;61.81;96258.59;5035729;28;20209;-70
2022/02/20 02:55:13;;;;;;;0.20;0.20;;;;;;;6.46;62.38;96257.72;5036444;28;20279;-70
2022/02/20 02:57:41;;;;;;;0.30;0.30;;;;;;;6.55;62.15;96264.66;5036401;28;20201;-70
2022/02/20 03:00:08;;;;;;;1.23;0.40;;;;;;;6.54;62.55;96268.25;5036921;28;20563;-70
2022/02/20 03:02:35;;;;;;;6.33;0.87;;;;;;;6.48;63.09;96271.47;5035800;28;20334;-70
2022/02/20 03:05:03;;;;;;;0.33;0.33;;;;;;;6.58;62.65;96269.59;5036039;28;20205;-70
2022/02/20 03:07:30;;;;;;;0.40;0.40;;;;;;;6.48;63.46;96267.06;5036611;28;20201;-70
2022/02/20 03:09:56;;;;;;;0.30;0.30;;;;;;;6.51;63.65;96258.09;5036444;28;20597;-70
2022/02/20 03:12:22;;;;;;;6.00;0.50;;;;;;;6.50;63.62;96269.53;5035945;28;20208;-70
2022/02/20 03:14:50;;;;;;;0.40;0.40;;;;;;;6.53;64.02;96277.06;5036561;28;20220;-70
2022/02/20 03:17:17;;;;;;;0.40;0.40;;;;;;;6.50;64.01;96266.91;5036219;28;20210;-70
2022/02/20 03:19:43;;;;;;;1.03;0.77;;;;;;;6.38;64.21;96282.03;5036303;28;20693;-70
2022/02/20 03:22:09;;;;;;;3.23;0.87;;;;;;;6.38;64.17;96289.88;5036909;28;20203;-70
2022/02/20 03:24:36;;;;;;;1.23;1.13;;;;;;;6.45;64.23;96285.66;5036389;28;20201;-70
2022/02/20 03:27:03;;;;;;;1.60;1.33;;;;;;;6.41;64.39;96283.53;5035921;28;20209;-70
2022/02/20 03:29:29;;;;;;;0.60;0.60;;;;;;;6.34;64.42;96292.94;5036231;28;20202;-70
2022/02/20 03:31:57;;;;;;;0.30;0.30;;;;;;;6.60;64.26;96294.63;5036004;28;20236;-70
2022/02/20 03:34:23;;;;;;;0.20;0.20;;;;;;;6.37;64.18;96290.03;5035415;28;20205;-70
2022/02/20 03:36:50;;;;;;;2.97;0.57;;;;;;;6.51;64.09;96305.22;5035836;28;21114;-70
2022/02/20 03:39:18;;;;;;;0.33;0.30;;;;;;;6.56;64.07;96301.16;5036384;28;20205;-70
2022/02/20 03:41:44;;;;;;;3.97;1.13;;;;;;;6.36;64.28;96311.94;5032224;28;20217;-70
2022/02/20 03:44:10;;;;;;;0.40;0.40;;;;;;;6.40;64.29;96302.81;5035005;28;20212;-70
2022/02/20 03:46:37;;;;;;;4.50;0.70;;;;;;;6.43;64.18;96319.03;5036466;28;20202;-70
2022/02/20 03:49:05;;;;;;;2.00;0.33;;;;;;;6.52;64.25;96314.69;5036131;28;20225;-70
2022/02/20 03:51:31;;;;;;;2.40;0.80;;;;;;;6.58;64.15;96312.31;5035762;28;20224;-70
2022/02/20 03:53:58;;;;;;;0.20;0.20;;;;;;;6.32;64.33;96306.16;5036213;28;20213;-70
2022/02/20 03:56:25;;;;;;;0.53;0.53;;;;;;;6.43;64.39;96316.44;5039826;28;20194;-70
2022/02/20 03:58:52;;;;;;;7.40;0.57;;;;;;;6.54;63.94;96331.06;5040193;28;20205;-70
2022/02/20 04:01:18;;;;;;;0.73;0.63;;;;;;;6.50;64.55;96309.59;5039587;28;20224;-70
2022/02/20 04:03:44;;;;;;;3.17;0.53;;;;;;;6.38;64.51;96325.72;5038896;28;20201;-69
2022/02/20 04:06:13;;;;;;;3.50;0.40;;;;;;;6.75;64.06;96325.38;5039977;28;20212;-70
2022/02/20 04:08:39;;;;;;;3.17;0.47;;;;;;;6.58;64.35;96332.41;5039591;28;20655;-70
2022/02/20 04:11:06;;;;;;;0.30;0.30;;;;;;;6.56;64.54;96319.47;5039013;28;20269;-70
2022/02/20 04:13:32;;;;;;;0.30;0.30;;;;;;;6.55;64.66;96319.63;5038860;28;20204;-70
2022/02/20 04:15:59;;;;;;;0.30;0.30;;;;;;;6.49;64.63;96318.44;5039666;28;20213;-70
2022/02/20 04:18:25;;;;;;;13.30;0.83;;;;;;;6.45;64.23;96311.84;5038980;28;20701;-70
2022/02/20 04:20:51;;;;;;;0.30;0.30;;;;;;;6.50;64.69;96309.59;5039318;28;20221;-70
2022/02/20 04:23:19;;;;;;;0.30;0.30;;;;;;;6.74;63.97;96322.91;5038167;28;20212;-70
2022/02/20 04:25:46;;;;;;;0.50;0.50;;;;;;;6.57;64.32;96315.91;5038818;28;20205;-71
2022/02/20 04:28:12;;;;;;;0.20;0.20;;;;;;;6.68;64.11;96320.88;5039821;28;20232;-70
2022/02/20 04:30:39;;;;;;;1.43;0.63;;;;;;;6.55;64.45;96330.91;5039109;28;20237;-70
2022/02/20 04:33:05;;;;;;;0.20;0.20;;;;;;;6.57;63.93;96328.97;5037738;28;20212;-70
2022/02/20 04:35:32;;;;;;;0.30;0.30;;;;;;;6.55;63.78;96323.06;5039368;28;20194;-70
2022/02/20 04:37:59;;;;;;;2.17;0.80;;;;;;;6.43;64.37;96319.03;5039869;28;20213;-70
2022/02/20 04:40:27;;;;;;;0.30;0.30;;;;;;;6.65;64.33;96329.03;5038324;28;21047;-70
2022/02/20 04:42:54;;;;;;;0.83;0.83;;;;;;;6.54;64.23;96337.13;5038038;28;20216;-70
2022/02/20 04:45:20;;;;;;;0.40;0.40;;;;;;;6.47;64.15;96330.03;5039645;28;20205;-70
2022/02/20 04:47:47;;;;;;;1.50;0.70;;;;;;;6.51;64.00;96328.75;5038836;28;20761;-70
2022/02/20 04:50:13;;;;;;;0.40;0.40;;;;;;;6.42;64.11;96335.72;5038531;28;20267;-70
2022/02/20 04:52:39;;;;;;;0.20;0.20;;;;;;;6.34;64.24;96340.88;5037918;28;20236;-70
2022/02/20 04:55:07;;;;;;;2.00;0.50;;;;;;;6.74;63.44;96333.38;5038663;28;20578;-70
2022/02/20 04:57:37;;;;;;;1.20;0.60;;;;;;;6.71;64.03;96341.53;5038653;28;20294;-70
2022/02/20 05:00:05;;;;;;;1.17;1.10;;;;;;;6.52;64.31;96333.84;5038537;28;20232;-70
2022/02/20 05:02:31;;;;;;;0.50;0.40;;;;;;;6.38;64.07;96339.59;5038165;28;20201;-70
2022/02/20 05:04:58;;;;;;;1.50;0.97;;;;;;;6.46;64.00;96334.44;5038066;28;20615;-71
2022/02/20 05:07:24;;;;;;;1.47;0.60;;;;;;;6.67;63.93;96340.22;5037542;28;20208;-71
2022/02/20 05:09:51;;;;;;;0.30;0.30;;;;;;;6.46;64.04;96352.75;5038065;28;20237;-70
2022/02/20 05:12:17;;;;;;;0.40;0.40;;;;;;;6.53;63.93;96356.44;5037114;28;20225;-70
2022/02/20 05:14:45;;;;;;;0.20;0.20;;;;;;;6.68;64.59;96362.78;5038416;28;20201;-70
2022/02/20 05:17:12;;;;;;;0.50;0.30;;;;;;;6.52;64.33;96362.63;5038106;28;20201;-70
2022/02/20 05:19:39;;;;;;;0.30;0.30;;;;;;;6.54;64.60;96370.34;5038199;28;20209;-70
2022/02/20 05:22:06;;;;;;;0.97;0.40;;;;;;;6.44;65.30;96367.81;5038002;28;20316;-70
2022/02/20 05:24:32;;;;;;;0.30;0.30;;;;;;;6.45;64.97;96381.69;5037980;28;20208;-70
2022/02/20 05:26:59;;;;;;;0.40;0.40;;;;;;;6.49;65.71;96386.50;5038243;28;20209;-70
2022/02/20 05:29:25;;;;;;;0.27;0.23;;;;;;;6.51;65.89;96384.53;5038315;28;20212;-70
2022/02/20 05:31:53;;;;;;;0.30;0.30;;;;;;;6.65;66.13;96383.22;5037236;28;20549;-71
2022/02/20 05:34:20;;;;;;;0.20;0.20;;;;;;;6.49;66.07;96391.75;5036880;28;20201;-70
2022/02/20 05:36:47;;;;;;;0.73;0.60;;;;;;;6.48;66.83;96394.47;5038404;28;20215;-70
2022/02/20 05:39:13;;;;;;;0.43;0.43;;;;;;;6.43;67.18;96394.94;5037927;28;20216;-70
2022/02/20 05:41:40;;;;;;;3.83;1.07;;;;;;;6.33;67.73;96383.72;5037552;28;20732;-70
2022/02/20 05:44:06;;;;;;;0.30;0.30;;;;;;;6.32;68.25;96389.09;5037631;28;20204;-70
2022/02/20 05:46:33;;;;;;;0.30;0.30;;;;;;;6.33;69.23;96396.78;5037326;28;20677;-70
2022/02/20 05:49:04;;;;;;;11.63;2.37;;;;;;;6.49;68.87;96396.97;5036994;28;20209;-70
2022/02/20 05:51:30;;;;;;;0.43;0.40;;;;;;;6.32;69.06;96403.00;5037759;28;20310;-70
2022/02/20 05:53:57;;;;;;;3.23;0.53;;;;;;;6.36;68.87;96395.69;5037857;28;20211;-70
2022/02/20 05:56:23;;;;;;;0.20;0.20;;;;;;;6.31;68.96;96403.97;5037537;28;20208;-70
2022/02/20 05:58:50;;;;;;;0.57;0.50;;;;;;;6.28;69.12;96413.91;5037242;28;20205;-70
2022/02/20 06:01:16;;;;;;;0.20;0.20;;;;;;;6.41;68.69;96424.84;5037922;28;20220;-70
2022/02/20 06:03:43;;;;;;;0.30;0.30;;;;;;;6.41;69.11;96409.97;5036490;28;20197;-70
2022/02/20 06:06:10;;;;;;;0.30;0.30;;;;;;;6.43;69.37;96413.25;5037374;28;20245;-70
2022/02/20 06:08:37;;;;;;;0.30;0.30;;;;;;;6.38;69.16;96415.50;5037781;28;20201;-70
2022/02/20 06:11:03;;;;;;;0.30;0.30;;;;;;;6.36;69.35;96422.66;5037030;28;20244;-70
2022/02/20 06:13:30;;;;;;;2.03;0.53;;;;;;;6.35;69.41;96418.41;5036496;28;20774;-70
2022/02/20 06:15:56;;;;;;;0.20;0.20;;;;;;;6.46;69.74;96415.56;5037272;28;20212;-70
2022/02/20 06:18:23;;;;;;;0.30;0.30;;;;;;;6.31;69.65;96424.91;5036699;28;20212;-70
2022/02/20 06:20:49;;;;;;;1.70;0.47;;;;;;;6.42;69.43;96409.00;5036914;28;20303;-70
2022/02/20 06:23:17;;;;;;;0.60;0.40;;;;;;;6.59;69.76;96413.41;5036833;28;20204;-70
2022/02/20 06:25:44;;;;;;;1.53;0.70;;;;;;;6.49;69.49;96417.91;5037130;28;20212;-70
2022/02/20 06:28:10;;;;;;;17.43;0.80;;;;;;;6.52;69.01;96415.00;5036796;28;20211;-70
2022/02/20 06:30:37;;;;;;;0.63;0.40;;;;;;;6.47;69.10;96406.75;5035686;28;20228;-69
2022/02/20 06:33:03;;;;;;;0.30;0.30;;;;;;;6.42;69.36;96411.59;5036609;28;20228;-70
2022/02/20 06:35:30;;;;;;;0.83;0.83;;;;;;;6.67;68.49;96389.94;5037113;28;20201;-70
2022/02/20 06:37:56;;;;;;;4.07;0.50;;;;;;;6.60;69.03;96399.34;5036874;28;20913;-70
2022/02/20 06:40:24;;;;;;;0.23;0.23;;;;;;;6.71;69.54;96407.00;5037144;28;20244;-70
2022/02/20 06:42:51;;;;;;;0.43;0.43;;;;;;;6.63;68.96;96409.53;5034217;28;20229;-70
2022/02/20 06:45:17;;;;;;;0.80;0.67;;;;;;;6.72;69.58;96403.38;5036477;28;20232;-70
2022/02/20 06:47:44;;;;;;;0.40;0.37;;;;;;;6.60;69.61;96412.44;5036976;28;21050;-70
2022/02/20 06:50:10;;;;;;;0.30;0.30;;;;;;;6.59;69.85;96408.19;5036459;28;20221;-70
2022/02/20 06:52:37;;;;;;;0.30;0.30;;;;;;;6.55;69.75;96419.09;5036027;28;20727;-70
2022/02/20 06:55:04;;;;;;;0.50;0.50;;;;;;;6.67;69.93;96426.59;5036452;28;20201;-70
2022/02/20 06:57:35;;;;;;;0.50;0.50;;;;;;;6.78;69.58;96423.75;5036567;28;20197;-70
2022/02/20 07:00:02;;;;;;;1.07;0.97;;;;;;;6.56;70.10;96429.44;5036009;28;20255;-70
2022/02/20 07:02:28;;;;;;;0.50;0.50;;;;;;;6.76;69.40;96423.09;5037221;28;20212;-70
2022/02/20 07:04:55;;;;;;;0.50;0.40;;;;;;;6.75;69.42;96422.25;5036370;28;20201;-70
2022/02/20 07:07:21;;;;;;;0.40;0.40;;;;;;;6.68;69.68;96421.22;5036435;28;20282;-69
2022/02/20 07:09:48;;;;;;;0.40;0.40;;;;;;;6.85;69.60;96424.81;5035996;28;20205;-70
2022/02/20 07:12:14;;;;;;;1.50;0.40;;;;;;;6.72;69.19;96419.94;5035680;28;20232;-70
2022/02/20 07:14:42;;;;;;;0.50;0.30;;;;;;;6.91;68.98;96413.72;5036583;28;20201;-70
2022/02/20 07:17:08;;;;;;;0.80;0.60;;;;;;;6.77;69.75;96412.47;5036448;28;20228;-70
2022/02/20 07:19:35;;;;;;;0.30;0.30;;;;;;;6.80;69.71;96427.06;5036203;28;20205;-71
2022/02/20 07:22:01;;;;;;;0.47;0.40;;;;;;;6.83;69.44;96421.50;5035758;28;20823;-70
2022/02/20 07:24:28;;;;;;;0.20;0.20;;;;;;;7.05;69.39;96426.28;5035406;28;20208;-70
2022/02/20 07:26:54;;;;;;;1.40;0.50;;;;;;;6.99;69.53;96426.91;5036319;28;20229;-70
2022/02/20 07:29:21;;;;;;;1.80;0.43;;;;;;;7.04;69.65;96427.25;5037685;28;20204;-70
2022/02/20 07:31:49;;;;;;;0.23;0.23;;;;;;;7.06;69.80;96428.75;5040168;28;20598;-70
2022/02/20 07:34:16;;;;;;;0.50;0.37;;;;;;;7.07;69.62;96433.03;5039556;28;20696;-70
2022/02/20 07:36:42;;;;;;;0.20;0.20;;;;;;;6.96;70.53;96443.75;5040003;28;20220;-70
2022/02/20 07:39:09;;;;;;;3.03;0.50;;;;;;;7.10;70.55;96437.94;5039764;28;20201;-70
2022/02/20 07:41:36;;;;;;;2.37;0.40;;;;;;;7.02;70.55;96439.69;5039740;28;20225;-69
2022/02/20 07:44:03;;;;;;;0.43;0.43;;;;;;;7.20;70.69;96445.75;5034423;28;20205;-70
2022/02/20 07:46:29;;;;;;;0.30;0.30;;;;;;;7.18;70.67;96445.06;5039520;28;20204;-70
2022/02/20 07:48:58;;;;;;;0.27;0.27;;;;;;;7.32;71.24;96446.19;5040075;28;20205;-70
2022/02/20 07:51:25;;;;;;;0.20;0.20;;;;;;;7.19;70.91;96454.56;5039546;28;20248;-70
2022/02/20 07:53:51;;;;;;;0.43;0.43;;;;;;;7.00;71.60;96452.13;5039264;28;20201;-70
2022/02/20 07:56:18;;;;;;;0.30;0.30;;;;;;;7.07;71.52;96455.78;5039523;28;20677;-70
2022/02/20 07:58:45;;;;;;;0.40;0.40;;;;;;;7.16;71.88;96454.88;5039971;28;20201;-70
2022/02/20 08:01:12;;;;;;;0.40;0.40;;;;;;;7.26;71.58;96452.00;5039956;28;20251;-70
2022/02/20 08:03:39;;;;;;;0.20;0.20;;;;;;;7.26;72.18;96463.50;5038802;28;20200;-70
2022/02/20 08:06:07;;;;;;;0.60;0.60;;;;;;;7.28;72.49;96434.34;5039329;28;20205;-70
2022/02/20 08:08:34;;;;;;;0.20;0.20;;;;;;;7.14;72.40;96441.09;5039936;28;20584;-70
2022/02/20 08:11:01;;;;;;;1.50;0.70;;;;;;;7.35;72.57;96439.81;5038974;28;20229;-70
2022/02/20 08:13:28;;;;;;;3.57;1.60;;;;;;;7.24;73.32;96441.84;5038367;28;20221;-70
2022/02/20 08:15:55;;;;;;;0.30;0.30;;;;;;;7.32;72.97;96435.69;5040542;28;20208;-70
2022/02/20 08:18:22;;;;;;;0.40;0.40;;;;;;;7.18;73.52;96432.81;5039164;28;20239;-69
2022/02/20 08:20:49;;;;;;;0.30;0.30;;;;;;;7.40;72.73;96432.31;5037475;28;20233;-70
2022/02/20 08:23:17;;;;;;;0.50;0.50;;;;;;;7.49;72.77;96432.19;5037986;28;20197;-70
2022/02/20 08:25:44;;;;;;;0.30;0.30;;;;;;;7.38;73.11;96416.75;5039003;28;20229;-70
2022/02/20 08:28:11;;;;;;;0.20;0.20;;;;;;;7.30;73.28;96421.91;5037569;28;20209;-70
2022/02/20 08:30:38;;;;;;;0.73;0.60;;;;;;;7.20;72.82;96416.91;5037604;28;20224;-70
2022/02/20 08:33:05;;;;;;;0.30;0.30;;;;;;;7.42;73.10;96409.38;5038264;28;20436;-70
2022/02/20 08:35:32;;;;;;;0.40;0.30;;;;;;;7.42;73.49;96410.22;5037824;28;20201;-70
2022/02/20 08:38:01;;;;;;;0.20;0.20;;;;;;;7.45;72.73;96415.13;5038129;28;20205;-70
2022/02/20 08:40:29;;;;;;;0.53;0.53;;;;;;;7.71;72.51;96415.94;5038281;28;20217;-70
2022/02/20 08:42:56;;;;;;;1.07;0.63;;;;;;;7.66;73.05;96413.00;5035669;28;20232;-70
2022/02/20 08:45:22;;;;;;;0.40;0.40;;;;;;;7.85;72.16;96407.50;5039127;28;20574;-70
2022/02/20 08:47:49;;;;;;;0.83;0.83;;;;;;;7.99;71.56;96404.28;5039016;28;20205;-70
2022/02/20 08:50:16;;;;;;;0.30;0.30;;;;;;;8.24;71.59;96399.03;5038533;28;20232;-70
2022/02/20 08:52:45;;;;;;;0.80;0.40;;;;;;;8.24;70.70;96392.97;5037996;28;20221;-70
2022/02/20 08:55:12;;;;;;;0.43;0.40;;;;;;;7.93;71.28;96416.25;5038654;28;20649;-70
2022/02/20 08:57:43;;;;;;;3.60;0.30;;;;;;;8.09;71.84;96394.50;5038913;28;21053;-70
2022/02/20 09:00:11;;;;;;;0.33;0.33;;;;;;;7.79;72.27;96392.41;5038370;28;20221;-70
2022/02/20 09:02:38;;;;;;;0.30;0.30;;;;;;;7.76;72.28;96407.63;5038064;28;20223;-70
2022/02/20 09:05:05;;;;;;;4.80;0.53;;;;;;;8.03;72.12;96406.47;5038827;28;20209;-70
2022/02/20 09:07:31;;;;;;;0.50;0.40;;;;;;;8.08;71.92;96400.72;5038421;28;20209;-70
2022/02/20 09:09:58;;;;;;;0.23;0.23;;;;;;;8.28;70.51;96402.16;5038347;28;21338;-69
2022/02/20 09:12:24;;;;;;;0.50;0.40;;;;;;;8.61;71.17;96409.97;5037764;28;20217;-70
2022/02/20 09:14:52;;;;;;;0.30;0.30;;;;;;;9.01;69.30;96410.03;5036765;28;20205;-70
2022/02/20 09:17:18;;;;;;;4.93;0.53;;;;;;;8.55;69.76;96418.47;5037204;28;20212;-70
2022/02/20 09:19:45;;;;;;;0.67;0.67;;;;;;;9.00;69.38;96424.97;5037662;28;20212;-70
2022/02/20 09:22:11;;;;;;;0.30;0.30;;;;;;;8.64;69.24;96428.03;5036443;28;20209;-70
2022/02/20 09:24:38;;;;;;;1.80;0.63;;;;;;;8.33;70.86;96428.75;5037562;28;20210;-70
2022/02/20 09:27:04;;;;;;;0.33;0.33;;;;;;;8.48;70.06;96421.91;5037937;28;20202;-71
2022/02/20 09:29:33;;;;;;;0.80;0.70;;;;;;;8.26;72.35;96425.09;5036536;28;20201;-70
2022/02/20 09:32:02;;;;;;;0.50;0.50;;;;;;;8.57;70.58;96427.03;5035715;28;20328;-70
2022/02/20 09:34:29;;;;;;;0.33;0.33;;;;;;;8.31;71.89;96430.72;5037159;28;20208;-71
2022/02/20 09:36:55;;;;;;;0.40;0.40;;;;;;;8.24;72.45;96425.28;5036912;28;20212;-70
2022/02/20 09:39:22;;;;;;;0.30;0.30;;;;;;;8.27;72.39;96413.63;5036457;28;20197;-70
2022/02/20 09:41:49;;;;;;;0.30;0.30;;;;;;;8.43;71.81;96432.09;5037298;28;20225;-70
2022/02/20 09:44:15;;;;;;;0.50;0.37;;;;;;;8.36;72.28;96433.69;5032558;28;20205;-70
2022/02/20 09:46:43;;;;;;;0.20;0.20;;;;;;;8.55;72.79;96421.94;5036290;28;20209;-71
2022/02/20 09:49:11;;;;;;;0.20;0.20;;;;;;;8.72;71.86;96430.69;5036757;28;20231;-70
2022/02/20 09:51:38;;;;;;;0.67;0.67;;;;;;;8.69;71.85;96425.75;5036622;28;20213;-71
2022/02/20 09:54:04;;;;;;;0.40;0.40;;;;;;;8.93;71.43;96423.16;5035635;28;20228;-71
2022/02/20 09:56:31;;;;;;;1.23;0.60;;;;;;;8.75;71.32;96420.66;5036694;28;20284;-70
2022/02/20 09:58:58;;;;;;;0.50;0.50;;;;;;;8.90;70.91;96421.69;5036226;28;20237;-70
2022/02/20 10:01:25;;;;;;;0.77;0.53;;;;;;;8.90;70.37;96418.25;5036289;28;20581;-70
2022/02/20 10:03:52;;;;;;;0.40;0.40;;;;;;;8.79;70.84;96419.34;5035846;28;20205;-70
2022/02/20 10:06:21;;;;;;;5.60;0.97;;;;;;;9.16;70.29;96411.84;5036422;28;20546;-70
2022/02/20 10:08:49;;;;;;;0.33;0.33;;;;;;;9.23;70.25;96408.38;5036169;28;20205;-71
2022/02/20 10:11:21;;;;;;;0.80;0.60;;;;;;;9.12;69.93;96398.19;5036232;28;20221;-70
2022/02/20 10:13:49;;;;;;;0.30;0.30;;;;;;;9.17;70.09;96387.19;5035412;28;21062;-70
2022/02/20 10:16:17;;;;;;;0.97;0.63;;;;;;;9.30;69.42;96401.47;5035561;28;20201;-70
2022/02/20 10:18:48;;;;;;;0.83;0.60;;;;;;;9.28;69.82;96390.31;5035791;28;20211;-71
2022/02/20 10:21:20;;;;;;;0.90;0.60;;;;;;;9.39;69.63;96394.41;5035853;28;20225;-70
2022/02/20 10:23:49;;;;;;;0.30;0.30;;;;;;;9.42;69.25;96386.19;5034882;28;20763;-70
2022/02/20 10:26:19;;;;;;;0.63;0.63;;;;;;;9.43;69.19;96379.94;5035490;28;20205;-70
2022/02/20 10:28:59;;;;;;;1.13;0.67;;;;;;;9.58;68.85;96409.84;5035897;28;20289;-71
2022/02/20 10:31:43;;;;;;;0.40;0.40;;;;;;;9.66;68.30;96383.50;5035882;28;20224;-71
2022/02/20 10:34:12;;;;;;;0.27;0.27;;;;;;;9.61;69.06;96373.50;5034562;28;20270;-70
2022/02/20 10:36:53;;;;;;;1.50;0.57;;;;;;;10.03;67.75;96374.91;5035779;28;20579;-70
2022/02/20 10:39:24;;;;;;;0.30;0.30;;;;;;;9.91;67.96;96375.38;5035311;28;20212;-70
2022/02/20 10:41:52;;;;;;;0.47;0.33;;;;;;;9.91;68.82;96386.72;5035714;28;20224;-70
2022/02/20 10:44:19;;;;;;;1.20;0.63;;;;;;;9.52;68.26;96385.03;5031248;28;20216;-69
2022/02/20 10:46:45;;;;;;;0.40;0.40;;;;;;;9.53;67.58;96381.41;5035494;28;20202;-69
2022/02/20 10:49:23;;;;;;;1.40;0.50;;;;;;;9.64;66.74;96386.31;5034836;28;20209;-69
2022/02/20 10:51:49;;;;;;;0.43;0.43;;;;;;;9.59;66.87;96372.84;5035596;28;20323;-69
2022/02/20 10:54:16;;;;;;;0.80;0.47;;;;;;;9.81;66.32;96388.75;5034544;28;20733;-70
2022/02/20 10:56:46;;;;;;;0.93;0.30;;;;;;;10.03;65.68;96382.78;5035777;28;20287;-69
2022/02/20 10:59:13;;;;;;;0.77;0.40;;;;;;;9.81;66.06;96383.50;5035559;28;20197;-69
2022/02/20 11:01:39;;;;;;;0.33;0.33;;;;;;;10.09;65.66;96381.28;5035501;28;20595;-69
2022/02/20 11:04:10;;;;;;;0.40;0.40;;;;;;;10.39;64.68;96374.22;5033507;28;20209;-69
2022/02/20 11:06:37;;;;;;;0.50;0.43;;;;;;;10.71;63.78;96375.88;5035942;28;20205;-69
2022/02/20 11:09:04;;;;;;;0.23;0.23;;;;;;;10.51;63.26;96370.22;5035743;28;20204;-69
2022/02/20 11:11:37;;;;;;;0.77;0.40;;;;;;;10.85;62.47;96375.94;5035414;28;20231;-70
2022/02/20 11:14:07;;;;;;;1.80;0.47;;;;;;;10.49;63.41;96355.59;5034157;28;20615;-69
2022/02/20 11:16:34;;;;;;;0.20;0.20;;;;;;;10.65;63.47;96350.19;5036722;28;20204;-70
2022/02/20 11:19:04;;;;;;;0.37;0.37;;;;;;;10.46;63.38;96350.63;5035145;28;20213;-69
2022/02/20 11:21:33;;;;;;;0.40;0.40;;;;;;;10.38;63.50;96358.59;5035151;28;20221;-70
2022/02/20 11:24:01;;;;;;;0.70;0.40;;;;;;;10.26;64.15;96354.72;5034716;28;20660;-69
2022/02/20 11:26:28;;;;;;;0.30;0.30;;;;;;;10.38;64.54;96334.88;5034670;28;20207;-69
2022/02/20 11:28:56;;;;;;;0.87;0.43;;;;;;;10.41;63.62;96329.25;5035442;28;20228;-69
2022/02/20 11:31:25;;;;;;;0.73;0.60;;;;;;;10.39;63.88;96333.91;5036195;28;20239;-69
2022/02/20 11:33:55;;;;;;;2.30;0.50;;;;;;;10.34;64.35;96325.69;5035195;28;20225;-70
2022/02/20 11:36:23;;;;;;;0.20;0.20;;;;;;;10.35;63.70;96320.25;5036257;28;20263;-70
2022/02/20 11:39:10;;;;;;;0.43;0.20;;;;;;;10.88;63.44;96316.75;5036550;28;20201;-69
2022/02/20 11:41:37;;;;;;;0.20;0.20;;;;;;;10.51;64.00;96311.44;5036037;28;20244;-69